sensor_id;sensor_type;location;lat;lon;timestamp;P1;durP1;ratioP1;P2;durP2;ratioP2
39822;SDS011;25499;53.958;10.970;2022-12-08T16:58:44;20.75;;;12.30;;
39822;SDS011;25499;53.958;10.970;2022-12-08T17:01:13;24.08;;;14.38;;
39822;SDS011;25499;53.958;10.970;2022-12-08T17:03:41;26.65;;;14.07;;
39822;SDS011;25499;53.958;10.970;2022-12-08T17:06:10;27.58;;;15.07;;
39822;SDS011;25499;53.958;10.970;2022-12-08T17:11:03;27.38;;;14.52;;
39822;SDS011;25499;53.958;10.970;2022-12-08T17:13:32;22.48;;;13.82;;
39822;SDS011;25499;53.958;10.970;2022-12-08T17:16:05;25.38;;;14.60;;
39822;SDS011;25499;53.958;10.970;2022-12-08T17:18:33;22.55;;;12.88;;
39822;SDS011;25499;53.958;10.970;2022-12-08T17:20:58;20.88;;;12.88;;
39822;SDS011;25499;53.958;10.970;2022-12-08T17:23:24;22.83;;;12.90;;
39822;SDS011;25499;53.958;10.970;2022-12-08T17:25:58;22.20;;;13.65;;
39822;SDS011;25499;53.958;10.970;2022-12-08T17:28:25;19.77;;;12.35;;
39822;SDS011;25499;53.958;10.970;2022-12-08T17:30:51;20.38;;;12.43;;
39822;SDS011;25499;53.958;10.970;2022-12-08T17:33:16;20.40;;;12.10;;
39822;SDS011;25499;53.958;10.970;2022-12-08T17:35:48;34.15;;;12.52;;
39822;SDS011;25499;53.958;10.970;2022-12-08T17:38:17;51.75;;;10.75;;
39822;SDS011;25499;53.958;10.970;2022-12-08T17:40:43;88.93;;;10.85;;
39822;SDS011;25499;53.958;10.970;2022-12-08T17:43:09;40.17;;;10.65;;
39822;SDS011;25499;53.958;10.970;2022-12-08T17:45:42;26.02;;;10.82;;
39822;SDS011;25499;53.958;10.970;2022-12-08T17:48:09;35.25;;;10.15;;
39822;SDS011;25499;53.958;10.970;2022-12-08T17:50:38;30.95;;;10.05;;
39822;SDS011;25499;53.958;10.970;2022-12-08T17:53:05;29.27;;;8.35;;
39822;SDS011;25499;53.958;10.970;2022-12-08T17:55:30;42.95;;;8.90;;
39822;SDS011;25499;53.958;10.970;2022-12-08T17:57:56;26.30;;;8.20;;
39822;SDS011;25499;53.958;10.970;2022-12-08T18:00:21;35.20;;;9.02;;
39822;SDS011;25499;53.958;10.970;2022-12-08T18:02:46;18.00;;;7.68;;
39822;SDS011;25499;53.958;10.970;2022-12-08T18:05:12;14.00;;;8.25;;
39822;SDS011;25499;53.958;10.970;2022-12-08T18:07:37;40.00;;;8.30;;
39822;SDS011;25499;53.958;10.970;2022-12-08T18:10:02;40.50;;;7.25;;
39822;SDS011;25499;53.958;10.970;2022-12-08T18:12:28;71.45;;;8.25;;
39822;SDS011;25499;53.958;10.970;2022-12-08T18:14:53;62.63;;;6.68;;
39822;SDS011;25499;53.958;10.970;2022-12-08T18:17:18;112.72;;;6.97;;
39822;SDS011;25499;53.958;10.970;2022-12-08T18:19:44;65.10;;;6.93;;
39822;SDS011;25499;53.958;10.970;2022-12-08T18:22:09;49.13;;;7.00;;
39822;SDS011;25499;53.958;10.970;2022-12-08T18:24:36;93.18;;;9.38;;
39822;SDS011;25499;53.958;10.970;2022-12-08T18:27:02;70.53;;;7.78;;
39822;SDS011;25499;53.958;10.970;2022-12-08T18:29:27;46.88;;;8.65;;
39822;SDS011;25499;53.958;10.970;2022-12-08T18:31:52;31.85;;;8.82;;
39822;SDS011;25499;53.958;10.970;2022-12-08T18:34:17;29.27;;;8.10;;
39822;SDS011;25499;53.958;10.970;2022-12-08T18:36:43;26.08;;;9.40;;
39822;SDS011;25499;53.958;10.970;2022-12-08T18:39:18;18.35;;;9.50;;
39822;SDS011;25499;53.958;10.970;2022-12-08T18:41:46;27.25;;;11.05;;
39822;SDS011;25499;53.958;10.970;2022-12-08T18:44:11;23.02;;;11.35;;
39822;SDS011;25499;53.958;10.970;2022-12-08T18:46:36;25.60;;;10.52;;
39822;SDS011;25499;53.958;10.970;2022-12-08T18:49:01;25.25;;;11.00;;
39822;SDS011;25499;53.958;10.970;2022-12-08T18:51:26;39.58;;;10.85;;
39822;SDS011;25499;53.958;10.970;2022-12-08T18:53:52;26.08;;;10.85;;
39822;SDS011;25499;53.958;10.970;2022-12-08T18:56:24;33.22;;;15.45;;
39822;SDS011;25499;53.958;10.970;2022-12-08T18:58:50;33.47;;;15.43;;
39822;SDS011;25499;53.958;10.970;2022-12-08T19:01:15;32.42;;;13.68;;
39822;SDS011;25499;53.958;10.970;2022-12-08T19:03:41;42.33;;;10.70;;
39822;SDS011;25499;53.958;10.970;2022-12-08T19:06:06;58.33;;;10.15;;
39822;SDS011;25499;53.958;10.970;2022-12-08T19:08:32;41.03;;;8.60;;
39822;SDS011;25499;53.958;10.970;2022-12-08T19:10:57;40.60;;;9.10;;
39822;SDS011;25499;53.958;10.970;2022-12-08T19:13:23;33.42;;;8.68;;
39822;SDS011;25499;53.958;10.970;2022-12-08T19:15:49;39.97;;;9.18;;
39822;SDS011;25499;53.958;10.970;2022-12-08T19:18:14;35.22;;;8.55;;
39822;SDS011;25499;53.958;10.970;2022-12-08T19:20:40;14.02;;;7.35;;
39822;SDS011;25499;53.958;10.970;2022-12-08T19:23:05;13.52;;;7.18;;
39822;SDS011;25499;53.958;10.970;2022-12-08T19:25:30;11.40;;;7.20;;
39822;SDS011;25499;53.958;10.970;2022-12-08T19:27:56;11.25;;;6.90;;
39822;SDS011;25499;53.958;10.970;2022-12-08T19:30:21;13.73;;;7.45;;
39822;SDS011;25499;53.958;10.970;2022-12-08T19:32:46;12.32;;;7.10;;
39822;SDS011;25499;53.958;10.970;2022-12-08T19:35:13;11.50;;;6.88;;
39822;SDS011;25499;53.958;10.970;2022-12-08T19:37:38;11.85;;;6.70;;
39822;SDS011;25499;53.958;10.970;2022-12-08T19:40:04;12.32;;;6.45;;
39822;SDS011;25499;53.958;10.970;2022-12-08T19:42:48;10.00;;;6.20;;
39822;SDS011;25499;53.958;10.970;2022-12-08T19:45:33;9.80;;;6.00;;
39822;SDS011;25499;53.958;10.970;2022-12-08T19:47:59;10.75;;;5.78;;
39822;SDS011;25499;53.958;10.970;2022-12-08T19:50:24;11.52;;;6.80;;
39822;SDS011;25499;53.958;10.970;2022-12-08T19:53:09;10.93;;;6.22;;
39822;SDS011;25499;53.958;10.970;2022-12-08T19:55:36;9.68;;;5.95;;
39822;SDS011;25499;53.958;10.970;2022-12-08T19:58:02;9.73;;;5.72;;
39822;SDS011;25499;53.958;10.970;2022-12-08T20:00:28;9.98;;;5.97;;
39822;SDS011;25499;53.958;10.970;2022-12-08T20:02:55;11.00;;;6.05;;
39822;SDS011;25499;53.958;10.970;2022-12-08T20:05:20;8.13;;;5.15;;
39822;SDS011;25499;53.958;10.970;2022-12-08T20:07:46;9.05;;;5.43;;
39822;SDS011;25499;53.958;10.970;2022-12-08T20:10:20;8.60;;;5.32;;
39822;SDS011;25499;53.958;10.970;2022-12-08T20:12:48;9.80;;;5.43;;
39822;SDS011;25499;53.958;10.970;2022-12-08T20:15:13;10.32;;;5.53;;
39822;SDS011;25499;53.958;10.970;2022-12-08T20:17:39;10.60;;;6.32;;
39822;SDS011;25499;53.958;10.970;2022-12-08T20:20:05;10.85;;;6.43;;
39822;SDS011;25499;53.958;10.970;2022-12-08T20:22:31;14.43;;;7.35;;
39822;SDS011;25499;53.958;10.970;2022-12-08T20:24:57;13.18;;;8.25;;
39822;SDS011;25499;53.958;10.970;2022-12-08T20:27:22;16.65;;;8.75;;
39822;SDS011;25499;53.958;10.970;2022-12-08T20:29:47;11.55;;;7.22;;
39822;SDS011;25499;53.958;10.970;2022-12-08T20:32:13;8.55;;;5.53;;
39822;SDS011;25499;53.958;10.970;2022-12-08T20:34:38;9.27;;;5.40;;
39822;SDS011;25499;53.958;10.970;2022-12-08T20:37:03;8.88;;;5.15;;
39822;SDS011;25499;53.958;10.970;2022-12-08T20:39:29;8.10;;;4.78;;
39822;SDS011;25499;53.958;10.970;2022-12-08T20:41:54;8.30;;;5.55;;
39822;SDS011;25499;53.958;10.970;2022-12-08T20:44:20;13.90;;;5.82;;
39822;SDS011;25499;53.958;10.970;2022-12-08T20:46:45;10.73;;;6.43;;
